Latest Coastal Weather Observations for Albany Airport

IDW60701

Issued at 9:02 pm WST Thursday 3 September 2015 (issued every 10 minutes, with the page automatically refreshed every 10 minutes)

About coastal observations | Map of coastal stations | Coastal observations for WA | Marine services | Other Formats
Station Details ID: 009999 Name: ALBANY AIRPORT Lat: -34.94 Lon: 117.82 Height: 68.4 m
Data from the previous 72 hours. | See also: Recent months at Albany Airport
Date/Time
WST
Temp

°C
Wind Pressure Rain
since 9am
mm
Weather Cloud Vis
km
Sea
Height
m
Swell
Dir
 
Speed
knots
Gust
knots
hPa Trend Height
m
Period
s
Dir
03/09:00pm 8.4 ENE 6 6 1022.2 - 0.0 - - 10 - - - -
03/08:30pm 9.1 ENE 6 8 1022.2 - 0.0 - - 10 - - - -
03/08:00pm 9.4 ENE 7 8 1022.4 - 0.0 - - 10 - - - -
03/07:30pm 9.4 ENE 7 8 1022.5 - 0.0 - - 10 - - - -
03/07:00pm 10.8 E 8 9 1022.5 - 0.0 - - 10 - - - -
03/06:30pm 10.3 E 7 9 1022.4 - 0.0 - - 10 - - - -
03/06:00pm 10.2 ESE 6 7 1022.6 - 0.0 - - 10 - - - -
03/05:30pm 12.4 ESE 6 8 1022.4 - 0.0 - Mostly clear 10 - - - -
03/05:00pm 13.6 E 6 8 1022.6 - 0.0 - Mostly clear 10 - - - -
03/04:30pm 13.4 ESE 8 9 1022.7 - 0.0 - Mostly clear 10 - - - -
03/04:00pm 13.4 ESE 7 9 1023.0 - 0.0 - Partly cloudy 10 - - - -
03/03:30pm 13.5 ESE 8 10 1023.1 - 0.0 - Partly cloudy 10 - - - -
03/03:00pm 14.2 E 4 5 1023.2 F 0.0 Fine Mostly cloudy 30 - - - -
03/02:30pm 14.2 ESE 4 5 1022.8 - 0.0 - Mostly clear 10 - - - -
03/02:00pm 14.1 ENE 5 6 1023.1 - 0.0 - Mostly clear 10 - - - -
03/01:30pm 14.0 NE 5 6 1023.4 - 0.0 - Mostly clear 10 - - - -
03/01:00pm 14.1 NE 5 7 1023.9 - 0.0 - Mostly clear 10 - - - -
03/12:30pm 14.4 ESE 7 10 1024.2 - 0.0 - Partly cloudy 10 - - - -
03/12:00pm 14.6 ENE 5 11 1024.9 F 0.0 Fine Mostly cloudy 30 - - - -
03/11:30am 13.8 ENE 8 11 1025.1 - 0.0 - Mostly clear 10 - - - -
03/11:00am 14.0 ENE 9 13 1025.2 - 0.0 - Partly cloudy 10 - - - -
03/10:30am 13.3 NNE 8 11 1025.6 - 0.0 - Partly cloudy 10 - - - -
03/10:00am 14.0 NE 4 8 1026.1 - 0.0 - Mostly clear 10 - - - -
03/09:30am 12.8 NE 6 8 1026.1 - 0.0 - Mostly clear 10 - - - -
03/09:00am 12.4 ENE 3 5 1026.6 F 0.0 Fine Mostly cloudy 30 - - - -
03/08:30am 10.5 SE 4 6 1026.7 - 0.0 - Mostly clear 10 - - - -
03/08:00am 10.0 CALM 0 4 1026.7 - 0.0 - Partly cloudy 10 - - - -
03/07:30am 9.4 SE 3 4 1026.5 - 0.0 - Partly cloudy 10 - - - -
03/07:00am 8.8 CALM 0 0 1026.3 - 0.0 - Mostly clear 10 - - - -
03/06:30am 8.3 NE 4 6 1026.2 - 0.0 - Partly cloudy 10 - - - -
03/06:00am 8.7 NE 5 7 1026.8 F 0.0 Fine Mostly cloudy 20 - - - -
03/05:30am 8.1 N 6 7 1026.1 - 0.0 - Cloudy 10 - - - -
03/05:00am 8.3 NNE 6 7 1026.1 - 0.0 - Cloudy 10 - - - -
03/04:30am 8.7 N 6 7 1026.2 - 0.0 - Partly cloudy 10 - - - -
03/04:00am 8.7 NE 4 6 1026.1 - 0.0 - Partly cloudy 10 - - - -
03/03:30am 8.6 N 5 6 1025.9 - 0.0 - Partly cloudy 10 - - - -
03/03:00am 8.7 NNE 5 6 1026.2 - 0.0 - Cloudy 10 - - - -
03/02:30am 9.3 N 6 8 1026.4 - 0.0 - Cloudy 10 - - - -
03/02:00am 9.4 NE 5 7 1026.3 - 0.0 - Cloudy 10 - - - -
03/01:30am 9.4 SW 3 4 1026.3 - 0.0 - Cloudy 10 - - - -
03/01:00am 9.3 NE 2 4 1026.9 - 0.0 - Cloudy 10 - - - -
03/12:30am 9.5 ENE 1 4 1027.0 - 0.0 - Cloudy 10 - - - -
03/12:00am 9.7 NE 2 8 1027.3 - 0.0 - Cloudy 10 - - - -
 
Date/Time
WST
Temp

°C
Wind Pressure Rain
since 9am
mm
Weather Cloud Vis
km
Sea
Height
m
Swell
Dir
 
Speed
knots
Gust
knots
hPa Trend Height
m
Period
s
Dir
02/11:30pm 9.8 CALM 0 0 1027.4 - 0.0 - Cloudy 10 - - - -
02/11:00pm 9.8 NNE 3 5 1027.6 - 0.0 - Cloudy 10 - - - -
02/10:30pm 10.0 NE 5 5 1027.6 - 0.0 - Cloudy 10 - - - -
02/10:00pm 10.0 ENE 4 5 1027.8 - 0.0 - Cloudy 10 - - - -
02/09:30pm 10.2 ENE 4 4 1027.8 - 0.0 - Cloudy 10 - - - -
02/09:00pm 10.2 NE 4 5 1028.1 - 0.0 - Cloudy 10 - - - -
02/08:30pm 10.7 NNE 4 5 1028.0 - 0.0 - Cloudy 10 - - - -
02/08:00pm 10.3 CALM 0 0 1027.9 - 0.0 - Cloudy 10 - - - -
02/07:30pm 11.0 CALM 0 0 1027.7 - 0.0 - Cloudy 10 - - - -
02/07:00pm 10.4 ENE 4 4 1027.5 - 0.0 - Cloudy 10 - - - -
02/06:30pm 10.9 E 3 4 1027.2 - 0.0 - Cloudy 10 - - - -
02/06:00pm 11.2 ESE 4 5 1027.1 - 0.0 - Cloudy 10 - - - -
02/05:30pm 11.7 ESE 5 7 1026.7 - 0.0 - Cloudy 10 - - - -
02/05:00pm 12.0 ESE 8 10 1026.3 - 0.0 - Cloudy 10 - - - -
02/04:30pm 11.7 E 7 9 1026.2 - 0.0 - Partly cloudy 10 - - - -
02/04:00pm 12.8 ESE 8 11 1026.1 - 0.0 - Mostly clear 10 - - - -
02/03:30pm 12.8 ESE 8 11 1026.2 - 0.0 - Mostly clear 10 - - - -
02/03:00pm 12.9 ESE 9 12 1026.3 S 0.0 Fine Mostly cloudy 30 - - - -
02/02:30pm 13.4 SE 8 11 1026.2 - 0.0 - Mostly clear 10 - - - -
02/02:00pm 14.1 ESE 7 10 1026.1 - 0.0 - Partly cloudy 10 - - - -
02/01:30pm 13.3 ESE 8 11 1026.2 - 0.0 - Partly cloudy 10 - - - -
02/01:00pm 13.6 SE 7 10 1026.5 - 0.0 - Partly cloudy 10 - - - -
02/12:30pm 13.4 SSE 8 12 1026.9 - 0.0 - Mostly cloudy 10 - - - -
02/12:00pm 13.5 SE 7 10 1027.5 S 0.0 Fine Mostly cloudy 30 - - - -
02/11:30am 13.4 SE 6 8 1027.4 - 0.0 - Partly cloudy 10 - - - -
02/11:00am 13.2 E 7 10 1027.7 - 0.0 - Partly cloudy 10 - - - -
02/10:30am 13.2 SSE 7 10 1027.8 - 0.0 - Partly cloudy 10 - - - -
02/10:00am 13.4 ESE 10 14 1027.7 - 0.0 - Partly cloudy 10 - - - -
02/09:30am 13.3 SE 9 12 1027.7 - 0.0 - Partly cloudy 10 - - - -
02/09:00am 12.8 SE 8 11 1028.0 R 3.0 Fine Mostly cloudy 30 - - - -
02/08:30am 12.1 SE 4 6 1027.6 - 3.0 - Mostly clear 10 - - - -
02/08:00am 10.4 CALM 0 0 1027.3 - 3.0 - Mostly clear 10 - - - -
02/07:30am 8.7 WNW 2 3 1027.0 - 3.0 - Mostly clear 10 - - - -
02/07:00am 7.9 W 4 4 1026.8 - 3.0 - Mostly clear 10 - - - -
02/06:30am 7.6 CALM 0 0 1026.3 - 3.0 - Mostly clear 10 - - - -
02/06:00am 7.3 CALM 0 0 1026.1 R 3.0 Fine Mostly cloudy 30 - - - -
02/05:30am 8.0 S 1 3 1025.7 - 3.0 - Cloudy 10 - - - -
02/05:00am 9.0 SSE 4 5 1025.4 - 3.0 - Partly cloudy 10 - - - -
02/04:30am 8.5 SSW 3 4 1025.4 - 3.0 - Partly cloudy 10 - - - -
02/04:00am 8.1 W 5 6 1025.4 - 3.0 - Partly cloudy 10 - - - -
02/03:30am 8.0 S 3 4 1025.4 - 3.0 - Cloudy 10 - - - -
02/03:00am 7.6 WNW 5 6 1025.4 - 3.0 - Cloudy 10 - - - -
02/02:30am 6.8 WNW 5 7 1025.5 - 3.0 - Partly cloudy 10 - - - -
02/02:00am 7.7 SE 1 3 1025.7 - 3.0 - Partly cloudy 10 - - - -
02/01:30am 7.7 W 3 4 1025.5 - 3.0 - Partly cloudy 10 - - - -
02/01:00am 7.0 ENE 3 5 1025.6 - 3.0 - Partly cloudy 10 - - - -
02/12:30am 6.5 CALM 0 0 1025.7 - 3.0 - Partly cloudy 10 - - - -
02/12:00am 6.5 WSW 1 3 1025.7 - 2.8 - Partly cloudy 10 - - - -
 
Date/Time
WST
Temp

°C
Wind Pressure Rain
since 9am
mm
Weather Cloud Vis
km
Sea
Height
m
Swell
Dir
 
Speed
knots
Gust
knots
hPa Trend Height
m
Period
s
Dir
01/11:30pm 8.3 W 4 6 1025.5 - 2.8 - Partly cloudy 10 - - - -
01/11:00pm 8.5 S 6 7 1025.7 - 2.8 - Partly cloudy 10 - - - -
01/10:30pm 9.0 SSE 5 9 1025.6 - 2.8 - Partly cloudy 10 - - - -
01/10:00pm 8.3 SSW 2 4 1025.5 - 2.8 - Partly cloudy 10 - - - -
01/09:30pm 8.5 S 4 5 1025.2 - 2.8 - Partly cloudy 10 - - - -
01/09:12pm 8.8 S 7 8 1025.0 - 2.8 - Partly cloudy 10 - - - -
01/09:00pm 8.9 S 7 10 1025.3 - 2.8 - Cloudy 7 - - - -
01/08:47pm 8.5 SSW 7 10 1025.2 - 2.6 - Partly cloudy 7 - - - -
01/08:30pm 8.6 SSW 7 10 1025.1 - 2.2 - Partly cloudy 10 - - - -
01/08:00pm 8.2 SW 4 7 1025.3 - 2.2 - Partly cloudy 10 - - - -
01/07:30pm 8.3 SSW 4 5 1025.1 - 2.2 - Partly cloudy 10 - - - -
01/07:00pm 8.6 S 5 7 1024.8 - 2.2 - Partly cloudy 10 - - - -
01/06:30pm 8.9 SSW 9 11 1024.5 - 2.0 - Partly cloudy 10 - - - -
01/06:00pm 8.8 SSW 6 8 1024.2 - 2.0 - Partly cloudy 10 - - - -
01/05:30pm 10.2 SSW 12 17 1023.7 - 2.0 - Partly cloudy 10 - - - -
01/05:00pm 10.0 SSE 8 9 1023.3 - 2.0 - Mostly clear 10 - - - -
01/04:30pm 11.1 S 10 15 1023.1 - 1.8 Showers Partly cloudy 10 - - - -
01/04:00pm 11.2 S 9 14 1022.8 - 1.8 - Mostly clear 10 - - - -
01/03:30pm 11.4 S 13 17 1022.5 - 1.8 - Partly cloudy 10 - - - -
01/03:00pm 11.9 S 14 21 1022.6 R 1.8 Fine Mostly clear 30 - - - -
01/02:30pm 12.3 S 17 23 1022.1 - 1.8 - Partly cloudy 10 - - - -
01/02:00pm 11.8 S 11 21 1021.7 - 1.8 - Mostly cloudy 10 - - - -
01/01:44pm 12.5 S 15 26 1021.6 - 1.8 Showers Mostly cloudy 10 - - - -
01/01:30pm 11.0 SSW 15 24 1021.5 - 1.8 - Mostly cloudy 10 - - - -
01/01:14pm 10.9 SSW 15 25 1021.5 - 1.8 - Partly cloudy 10 - - - -
01/01:00pm 11.5 SSW 15 23 1021.3 - 1.8 - Partly cloudy 10 - - - -
01/12:41pm 12.3 S 18 29 1021.2 - 1.8 - Partly cloudy 10 - - - -
01/12:30pm 12.1 SSW 18 25 1021.3 - 1.8 - Partly cloudy 10 - - - -
01/12:00pm 11.3 S 14 22 1021.8 R 1.8 Distant precip. Mostly cloudy 25 - - - -
01/11:30am 8.8 S 15 26 1021.7 - 1.8 - Mostly clear 10 - - - -
01/11:00am 11.1 S 12 19 1021.5 - 1.8 - Partly cloudy 10 - - - -
01/10:52am 10.1 S 13 20 1021.6 - 1.8 - Mostly clear 10 - - - -
01/10:30am 8.5 SSW 9 13 1021.5 - 1.6 Showers Mostly clear 6 - - - -
01/10:14am 8.2 S 13 27 1021.5 - 1.2 Showers Mostly clear 6 - - - -
01/10:00am 7.8 SSW 10 15 1021.2 - 1.2 - Mostly clear 9 - - - -
01/09:40am 9.7 SSW 17 30 1020.9 - 0.0 Showers Mostly clear 6 - - - -
01/09:30am 10.4 SSW 15 22 1020.7 - 0.0 - Partly cloudy 10 - - - -
01/09:12am 8.7 S 11 18 1020.7 - 0.0 - Partly cloudy 10 - - - -
01/09:00am 7.0 S 15 - 1020.9 R 25.0 Showers Mostly cloudy 20 - - - -
01/08:58am 7.1 S 14 26 1020.7 - 24.6 Showers Mostly clear 10 - - - -
01/08:30am 7.7 S 16 25 1020.3 - 24.4 - Mostly clear 10 - - - -
01/08:25am 8.0 S 15 25 1020.2 - 24.4 - Mostly clear 10 - - - -
01/08:00am 8.2 SSW 8 10 1019.7 - 24.2 - Mostly clear 10 - - - -
01/07:55am 7.9 SSW 9 15 1019.7 - 24.2 - Mostly clear 10 - - - -
01/07:30am 7.1 S 9 14 1019.6 - 23.2 Showers Mostly clear 6 - - - -
01/07:12am 6.8 S 15 27 1019.3 - 23.2 - Partly cloudy 10 - - - -
01/07:00am 6.6 S 19 30 1019.3 - 23.2 - Mostly clear 10 - - - -
01/06:54am 6.6 S 15 30 1019.0 - 23.2 Showers Mostly clear 10 - - - -
01/06:50am 7.3 S 11 18 1019.0 - 23.2 Showers Mostly clear 7 - - - -
01/06:30am 6.7 S 12 19 1018.4 - 22.6 Showers Mostly clear 8 - - - -
01/06:19am 6.2 SW 14 20 1018.4 - 22.4 Showers Mostly clear 10 - - - -
01/06:00am 5.6 SW 21 28 1018.9 R 22.2 Showers Mostly cloudy 5 - - - -
01/05:58am 5.6 SW 21 28 1018.8 - 22.0 Showers Mostly clear 6 - - - -
01/05:30am 6.7 S 17 27 1017.7 - 21.2 - Partly cloudy 10 - - - -
01/05:00am 7.5 S 18 31 1017.3 - 21.2 - Partly cloudy 10 - - - -
01/04:59am 7.5 S 17 31 1017.2 - 21.2 - Partly cloudy 10 - - - -
01/04:35am 7.0 SSW 17 28 1016.8 - 20.8 - Partly cloudy 3 - - - -
01/04:30am 6.8 SSW 14 21 1016.9 - 20.2 - Partly cloudy 5 - - - -
01/04:28am 7.1 SSW 13 21 1016.9 - 19.6 - Partly cloudy 8 - - - -
01/04:18am 6.8 SW 11 17 1016.7 - 19.2 - Partly cloudy 10 - - - -
01/04:02am 6.3 SW 17 27 1016.6 - 18.8 - Partly cloudy 6 - - - -
01/04:00am 6.2 SW 18 27 1016.6 - 18.8 - Partly cloudy 5 - - - -
01/03:50am 6.6 SW 12 28 1017.0 - 18.0 - Partly cloudy 7 - - - -
01/03:30am 6.7 SSW 13 18 1016.2 - 17.2 - Partly cloudy 10 - - - -
01/03:26am 6.4 SSW 13 20 1016.1 - 17.2 - Partly cloudy 10 - - - -
01/03:08am 6.4 SSW 20 32 1016.3 - 17.2 - Partly cloudy 8 - - - -
01/03:01am 7.6 SSW 15 26 1016.1 - 16.8 - Partly cloudy 10 - - - -
01/03:00am 7.7 SSW 15 22 1016.3 - 16.8 - Cloudy 10 - - - -
01/02:30am 7.1 S 16 26 1016.0 - 16.6 - Partly cloudy 10 - - - -
01/02:22am 7.5 SSW 15 26 1016.1 - 16.6 - Partly cloudy 10 - - - -
01/02:10am 7.4 SW 16 23 1016.3 - 16.6 - Partly cloudy 10 - - - -
01/02:00am 7.0 S 10 13 1016.1 - 16.4 - Partly cloudy 10 - - - -
01/01:30am 6.6 SSW 13 19 1015.9 - 16.4 - Partly cloudy 10 - - - -
01/01:08am 7.2 SW 17 28 1016.1 - 16.2 - Partly cloudy 10 - - - -
01/01:00am 7.3 SSW 14 21 1015.8 - 16.2 - Partly cloudy 10 - - - -
01/12:45am 6.4 SSW 11 14 1016.0 - 16.2 - Partly cloudy 10 - - - -
01/12:30am 6.1 WSW 16 27 1015.9 - 16.0 - Partly cloudy 7 - - - -
01/12:28am 6.1 WSW 16 27 1016.1 - 16.0 - Partly cloudy 8 - - - -
01/12:25am 6.7 SW 15 27 1016.0 - 15.8 - Partly cloudy 10 - - - -
01/12:00am 7.2 SW 12 17 1015.6 - 15.6 - Cloudy 10 - - - -
 
Date/Time
WST
Temp

°C
Wind Pressure Rain
since 9am
mm
Weather Cloud Vis
km
Sea
Height
m
Swell
Dir
 
Speed
knots
Gust
knots
hPa Trend Height
m
Period
s
Dir
31/11:56pm 7.1 SW 11 16 1015.3 - 15.6 - Partly cloudy 10 - - - -
31/11:38pm 7.8 SSW 22 32 1015.4 - 15.6 - Partly cloudy 10 - - - -
31/11:36pm 8.3 SSW 22 29 1015.2 - 15.6 - Partly cloudy 10 - - - -
31/11:32pm 8.8 SW 15 27 1015.1 - 15.6 - Partly cloudy 10 - - - -
31/11:30pm 8.8 SW 13 20 1015.0 - 15.6 - Partly cloudy 10 - - - -
31/11:00pm 8.3 WSW 11 14 1015.0 - 15.6 - Partly cloudy 10 - - - -
31/10:30pm 8.8 SW 15 24 1015.0 - 15.6 - Partly cloudy 10 - - - -
31/10:00pm 8.4 SW 11 15 1014.9 - 15.6 - Partly cloudy 10 - - - -
31/09:30pm 7.5 SW 9 14 1014.9 - 15.6 - Partly cloudy 10 - - - -

Other Formats:

Comma delimited format used in spreadsheet applications
http://www.bom.gov.au/fwo/IDW60701/IDW60701.94802.axf

JavaScript Object Notation format (JSON) in row-major order
http://www.bom.gov.au/fwo/IDW60701/IDW60701.94802.json